Time;durP1;ratioP1;P1;durP2;ratioP2;P2;SDS_P1;SDS_P2;PMS_P1;PMS_P2;Temp;Humidity;BMP_temperature;BMP_pressure;BME280_temperature;BME280_humidity;BME280_pressure;Samples;Min_cycle;Max_cycle;Signal;HPM_P1;HPM_P2
2023/06/20 00:02:21;;;;;;;9.13;8.23;;;20.00;99.90;;;;;;5059934;28;20188;-80
2023/06/20 00:04:48;;;;;;;10.17;9.03;;;20.00;99.90;;;;;;5059882;28;20220;-79
2023/06/20 00:07:14;;;;;;;10.23;9.03;;;19.90;99.90;;;;;;5058977;28;20161;-82
2023/06/20 00:09:39;;;;;;;9.83;8.93;;;19.80;99.90;;;;;;5059672;28;20179;-80
2023/06/20 00:12:06;;;;;;;9.63;8.77;;;19.80;99.90;;;;;;5059302;28;20172;-79
2023/06/20 00:14:31;;;;;;;9.77;8.77;;;19.70;99.90;;;;;;5057716;28;20223;-78
2023/06/20 00:16:59;;;;;;;10.00;8.97;;;19.80;99.90;;;;;;5044203;28;20230;-80
2023/06/20 00:19:27;;;;;;;10.03;9.03;;;19.80;99.90;;;;;;5044690;28;20168;-79
2023/06/20 00:21:53;;;;;;;9.87;8.97;;;19.80;99.90;;;;;;5036730;28;20177;-81
2023/06/20 00:24:19;;;;;;;9.87;8.97;;;19.80;99.90;;;;;;5052384;28;20191;-79
2023/06/20 00:26:45;;;;;;;9.77;8.87;;;19.80;99.90;;;;;;5044033;28;20234;-77
2023/06/20 00:29:10;;;;;;;9.40;8.70;;;19.80;99.90;;;;;;5035652;28;20249;-78
2023/06/20 00:31:37;;;;;;;11.53;9.10;;;19.80;99.90;;;;;;5035788;28;20187;-77
2023/06/20 00:34:02;;;;;;;9.67;8.77;;;19.80;99.90;;;;;;5035864;28;20207;-79
2023/06/20 00:36:28;;;;;;;10.03;9.13;;;19.80;99.90;;;;;;5021254;28;20265;-78
2023/06/20 00:38:55;;;;;;;9.47;8.63;;;19.80;99.90;;;;;;5040160;28;20183;-78
2023/06/20 00:41:21;;;;;;;9.23;8.50;;;19.80;99.90;;;;;;5051802;28;20177;-78
2023/06/20 00:43:50;;;;;;;9.37;8.50;;;19.70;99.90;;;;;;5035885;28;20204;-78
2023/06/20 00:46:23;;;;;;;9.43;8.53;;;19.70;99.90;;;;;;5035026;28;20247;-80
2023/06/20 00:48:49;;;;;;;9.60;8.67;;;19.60;99.90;;;;;;5034777;28;20179;-77
2023/06/20 00:51:19;;;;;;;9.70;8.80;;;19.60;99.90;;;;;;5016637;28;20528;-77
2023/06/20 00:53:46;;;;;;;10.40;8.20;;;19.50;99.90;;;;;;5034350;28;20259;-77
2023/06/20 00:56:12;;;;;;;12.03;8.20;;;19.40;99.90;;;;;;5034353;28;20186;-79
2023/06/20 00:58:38;;;;;;;9.50;8.70;;;19.40;99.90;;;;;;5034113;28;20180;-77
2023/06/20 01:01:04;;;;;;;9.50;8.60;;;19.30;99.90;;;;;;5033822;28;20204;-78
2023/06/20 01:03:31;;;;;;;9.07;8.27;;;19.40;99.90;;;;;;5034321;28;20564;-78
2023/06/20 01:06:23;;;;;;;9.60;8.70;;;19.30;99.90;;;;;;5033868;28;20168;-79
2023/06/20 01:09:01;;;;;;;9.43;8.53;;;19.40;99.90;;;;;;5015508;28;20177;-77
2023/06/20 01:11:57;;;;;;;8.90;8.10;;;19.40;99.90;;;;;;5034059;28;20172;-77
2023/06/20 01:14:59;;;;;;;9.00;8.20;;;19.30;99.90;;;;;;5033762;28;20205;-78
2023/06/20 01:18:18;;;;;;;9.30;8.50;;;19.30;99.90;;;;;;5016317;28;20580;-77
2023/06/20 01:21:00;;;;;;;9.00;8.10;;;19.40;99.90;;;;;;4992967;28;20181;-79
2023/06/20 01:23:33;;;;;;;10.33;8.80;;;19.30;99.90;;;;;;4992766;28;20225;-78
2023/06/20 01:26:02;;;;;;;9.47;8.50;;;19.30;99.90;;;;;;4992314;28;20162;-78
2023/06/20 01:28:52;;;;;;;8.83;8.13;;;19.20;99.90;;;;;;4992493;28;20245;-77
2023/06/20 01:31:35;;;;;;;9.30;8.50;;;19.20;99.90;;;;;;4992281;28;20209;-79
2023/06/20 01:34:16;;;;;;;8.80;8.00;;;19.20;99.90;;;;;;4991298;28;20213;-78
2023/06/20 01:36:52;;;;;;;8.40;7.70;;;19.20;99.90;;;;;;4993457;28;20166;-79
2023/06/20 01:39:25;;;;;;;9.40;8.33;;;19.20;99.90;;;;;;4998634;28;20169;-80
2023/06/20 01:41:53;;;;;;;9.27;8.47;;;19.20;99.90;;;;;;4993931;28;20237;-80
2023/06/20 01:44:21;;;;;;;9.60;8.70;;;19.10;99.90;;;;;;5003713;28;20685;-78
2023/06/20 01:46:49;;;;;;;9.83;8.90;;;19.10;99.90;;;;;;4982776;28;20181;-78
2023/06/20 01:49:16;;;;;;;10.07;9.10;;;19.20;99.90;;;;;;4997091;28;20174;-79
2023/06/20 01:51:43;;;;;;;10.70;9.60;;;19.20;99.90;;;;;;5002537;28;20185;-78
2023/06/20 01:54:10;;;;;;;9.70;8.90;;;19.20;99.90;;;;;;5007933;28;20238;-77
2023/06/20 01:56:37;;;;;;;10.03;9.10;;;19.30;99.90;;;;;;5037266;28;20169;-78
2023/06/20 01:59:04;;;;;;;10.57;8.90;;;19.20;99.90;;;;;;5018057;28;20184;-80
2023/06/20 02:01:31;;;;;;;10.10;8.93;;;19.30;99.90;;;;;;5048831;28;20215;-79
2023/06/20 02:03:59;;;;;;;10.30;9.40;;;19.30;99.90;;;;;;5039685;28;20184;-78
2023/06/20 02:06:25;;;;;;;10.03;9.03;;;19.30;99.90;;;;;;5033806;28;20580;-79
2023/06/20 02:08:53;;;;;;;10.50;8.37;;;19.30;99.90;;;;;;5033526;28;20242;-78
2023/06/20 02:11:21;;;;;;;9.77;8.87;;;19.30;99.90;;;;;;5032969;28;20164;-78
2023/06/20 02:13:49;;;;;;;10.10;8.43;;;19.30;99.90;;;;;;5035139;28;20208;-77
2023/06/20 02:16:17;;;;;;;11.80;9.60;;;19.30;99.90;;;;;;5037667;28;20172;-79
2023/06/20 02:18:43;;;;;;;9.43;8.57;;;19.30;99.90;;;;;;5037218;28;20269;-77
2023/06/20 02:21:19;;;;;;;9.90;9.00;;;19.20;99.90;;;;;;5032988;28;20176;-77
2023/06/20 02:23:49;;;;;;;10.40;9.40;;;19.20;99.90;;;;;;5033312;28;20168;-76
2023/06/20 02:26:17;;;;;;;9.60;8.80;;;19.20;99.90;;;;;;5032672;28;20250;-77
2023/06/20 02:28:46;;;;;;;10.33;9.03;;;19.30;99.90;;;;;;5032541;28;20263;-78
2023/06/20 02:31:17;;;;;;;9.57;8.67;;;19.30;99.90;;;;;;5033101;28;20176;-79
2023/06/20 02:33:47;;;;;;;9.60;8.60;;;19.30;99.90;;;;;;5032558;28;20892;-80
2023/06/20 02:36:13;;;;;;;9.93;8.93;;;19.30;99.90;;;;;;5036845;28;20173;-78
2023/06/20 02:38:39;;;;;;;10.97;9.07;;;19.20;99.90;;;;;;5038223;28;20169;-82
2023/06/20 02:41:05;;;;;;;10.37;9.23;;;19.10;99.90;;;;;;5027558;28;20184;-80
2023/06/20 02:43:31;;;;;;;10.80;9.80;;;19.10;99.90;;;;;;5036441;28;20173;-79
2023/06/20 02:46:33;;;;;;;9.83;8.83;;;19.10;99.90;;;;;;5017790;28;20523;-76
2023/06/20 02:49:13;;;;;;;9.13;8.33;;;19.00;99.90;;;;;;5036606;28;20506;-78
2023/06/20 02:52:21;;;;;;;9.40;8.60;;;19.00;99.90;;;;;;5037074;28;20255;-78
2023/06/20 02:55:05;;;;;;;9.60;8.77;;;19.00;99.90;;;;;;5035927;28;20247;-77
2023/06/20 02:57:31;;;;;;;9.63;8.73;;;18.90;99.90;;;;;;5036506;28;20230;-78
2023/06/20 03:00:08;;;;;;;9.83;9.03;;;18.90;99.90;;;;;;5036872;28;20195;-78
2023/06/20 03:02:40;;;;;;;10.67;9.63;;;18.90;99.90;;;;;;5018605;28;20176;-78
2023/06/20 03:05:10;;;;;;;9.90;8.93;;;19.00;99.90;;;;;;5036088;28;20203;-79
2023/06/20 03:07:37;;;;;;;9.33;8.43;;;18.90;99.90;;;;;;5036894;28;20238;-79
2023/06/20 03:10:06;;;;;;;9.27;8.43;;;18.90;99.90;;;;;;5042433;28;20168;-79
2023/06/20 03:12:31;;;;;;;9.50;8.50;;;18.80;99.90;;;;;;5020302;28;20187;-78
2023/06/20 03:14:57;;;;;;;10.23;9.23;;;18.80;99.90;;;;;;5036248;28;20208;-78
2023/06/20 03:17:23;;;;;;;9.30;8.50;;;18.80;99.90;;;;;;5018489;28;20181;-79
2023/06/20 03:19:49;;;;;;;9.70;8.90;;;18.80;99.90;;;;;;5036611;28;20211;-81
2023/06/20 03:22:15;;;;;;;10.03;9.17;;;18.80;99.90;;;;;;5040831;28;20718;-79
2023/06/20 03:24:40;;;;;;;9.50;8.60;;;18.80;99.90;;;;;;5036200;28;20172;-79
2023/06/20 03:27:06;;;;;;;9.57;8.57;;;18.80;99.90;;;;;;5049874;28;20173;-79
2023/06/20 03:29:32;;;;;;;10.20;9.30;;;18.90;99.90;;;;;;5019553;28;20176;-81
2023/06/20 03:31:59;;;;;;;10.57;9.47;;;18.90;99.90;;;;;;5036833;28;20644;-77
2023/06/20 03:34:24;;;;;;;10.50;9.50;;;18.90;99.90;;;;;;5038039;28;20214;-79
2023/06/20 03:36:50;;;;;;;9.80;8.90;;;18.90;99.90;;;;;;5021068;28;20172;-78
2023/06/20 03:39:16;;;;;;;10.20;9.07;;;18.90;99.90;;;;;;5057429;28;20248;-77
2023/06/20 03:41:41;;;;;;;9.90;8.90;;;18.90;99.90;;;;;;5018643;28;20188;-80
2023/06/20 03:44:07;;;;;;;10.87;9.70;;;18.90;99.90;;;;;;5036210;28;20629;-76
2023/06/20 03:46:33;;;;;;;10.97;9.90;;;18.90;99.90;;;;;;5040794;28;20181;-79
2023/06/20 03:48:58;;;;;;;10.57;9.53;;;18.90;99.90;;;;;;5038901;28;20165;-77
2023/06/20 03:51:24;;;;;;;11.83;10.67;;;18.90;99.90;;;;;;5035479;28;20174;-78
2023/06/20 03:53:50;;;;;;;11.90;10.17;;;19.00;99.90;;;;;;5035208;28;20294;-78
2023/06/20 03:56:16;;;;;;;11.93;10.13;;;19.00;99.90;;;;;;5017137;28;20177;-78
2023/06/20 03:58:41;;;;;;;11.47;10.40;;;19.00;99.90;;;;;;5036039;28;20644;-78
2023/06/20 04:01:07;;;;;;;10.93;9.83;;;19.00;99.90;;;;;;5035633;28;20516;-78
2023/06/20 04:03:33;;;;;;;10.47;9.47;;;19.10;99.90;;;;;;5036459;28;20181;-78
2023/06/20 04:06:01;;;;;;;10.80;9.80;;;19.10;99.90;;;;;;5035494;28;20183;-78
2023/06/20 04:08:30;;;;;;;11.37;10.27;;;19.10;99.90;;;;;;5036513;28;20208;-78
2023/06/20 04:10:56;;;;;;;10.90;9.90;;;19.20;99.90;;;;;;5036337;28;20173;-77
2023/06/20 04:13:22;;;;;;;12.57;10.63;;;19.30;99.90;;;;;;5040536;28;20259;-79
2023/06/20 04:15:48;;;;;;;11.40;10.17;;;19.30;99.90;;;;;;5052570;28;20173;-78
2023/06/20 04:18:14;;;;;;;13.60;11.43;;;19.40;99.90;;;;;;5045697;28;20222;-77
2023/06/20 04:20:41;;;;;;;11.63;10.53;;;19.50;99.90;;;;;;5040439;28;20267;-76
2023/06/20 04:23:07;;;;;;;11.93;10.83;;;19.40;99.90;;;;;;5036914;28;20168;-78
2023/06/20 04:25:34;;;;;;;11.83;10.63;;;19.50;99.90;;;;;;5034753;28;20310;-78
2023/06/20 04:27:59;;;;;;;12.40;10.90;;;19.60;99.90;;;;;;5035257;28;20183;-78
2023/06/20 04:30:25;;;;;;;12.13;10.93;;;19.60;99.90;;;;;;5038487;28;20173;-77
2023/06/20 04:32:53;;;;;;;11.97;10.33;;;19.70;99.90;;;;;;5037558;28;20203;-76
2023/06/20 04:35:21;;;;;;;11.60;10.50;;;19.70;99.90;;;;;;5034655;28;20179;-76
2023/06/20 04:37:51;;;;;;;11.40;10.33;;;19.80;99.90;;;;;;5036176;28;20177;-78
2023/06/20 04:40:17;;;;;;;11.93;10.83;;;19.90;99.90;;;;;;5049838;28;20191;-78
2023/06/20 04:42:45;;;;;;;11.43;10.20;;;19.90;99.90;;;;;;5041438;28;20180;-79
2023/06/20 04:45:11;;;;;;;11.10;10.10;;;20.10;99.90;;;;;;5050392;28;20177;-78
2023/06/20 04:47:37;;;;;;;11.67;10.47;;;20.10;99.90;;;;;;5042199;28;20172;-77
2023/06/20 04:50:03;;;;;;;11.63;10.43;;;20.10;99.90;;;;;;5038769;28;20191;-77
2023/06/20 04:52:32;;;;;;;12.37;11.07;;;20.10;99.90;;;;;;5034599;28;20505;-79
2023/06/20 04:55:02;;;;;;;12.53;11.33;;;20.10;99.90;;;;;;5033767;28;20244;-78
2023/06/20 04:57:32;;;;;;;12.07;10.87;;;20.10;99.90;;;;;;5016533;28;20185;-77
2023/06/20 04:59:58;;;;;;;11.93;10.73;;;20.20;99.90;;;;;;5034858;28;20169;-79
2023/06/20 05:02:25;;;;;;;11.63;10.43;;;20.30;99.90;;;;;;5036743;28;20172;-78
2023/06/20 05:04:51;;;;;;;11.63;10.53;;;20.30;99.90;;;;;;5053024;28;20180;-79
2023/06/20 05:07:18;;;;;;;11.73;10.53;;;20.30;99.90;;;;;;5034419;28;20176;-78
2023/06/20 05:09:44;;;;;;;11.77;10.67;;;20.40;99.90;;;;;;5042391;28;20172;-77
2023/06/20 05:12:11;;;;;;;11.93;10.63;;;20.50;99.90;;;;;;5043848;28;20664;-78
2023/06/20 05:14:36;;;;;;;12.27;11.07;;;20.50;99.90;;;;;;5026802;28;20204;-77
2023/06/20 05:17:02;;;;;;;11.73;10.60;;;20.50;99.90;;;;;;5043269;28;20708;-77
2023/06/20 05:19:28;;;;;;;13.30;10.70;;;20.60;99.90;;;;;;5037936;28;20667;-78
2023/06/20 05:21:54;;;;;;;10.93;9.97;;;20.60;99.90;;;;;;5023698;28;20176;-78
2023/06/20 05:24:20;;;;;;;12.50;11.27;;;20.80;99.90;;;;;;5035783;28;20169;-77
2023/06/20 05:26:46;;;;;;;12.13;10.97;;;20.80;99.90;;;;;;5019139;28;20184;-78
2023/06/20 05:29:12;;;;;;;12.53;11.23;;;20.90;99.90;;;;;;5021026;28;20299;-78
2023/06/20 05:31:41;;;;;;;12.10;10.93;;;20.80;99.90;;;;;;5045152;28;20667;-79
2023/06/20 05:34:07;;;;;;;12.07;10.80;;;21.00;99.90;;;;;;5036066;28;20212;-79
2023/06/20 05:36:33;;;;;;;12.07;10.97;;;21.00;99.90;;;;;;5034050;28;20179;-79
2023/06/20 05:38:59;;;;;;;12.33;10.97;;;21.00;99.90;;;;;;5015705;28;20176;-80
2023/06/20 05:41:25;;;;;;;12.73;11.47;;;22.30;99.90;;;;;;5016284;28;20238;-78
2023/06/20 05:43:51;;;;;;;11.43;10.33;;;21.10;99.90;;;;;;5034290;28;20569;-78
2023/06/20 05:46:17;;;;;;;11.70;10.50;;;21.30;99.90;;;;;;5034516;28;20203;-81
2023/06/20 05:48:43;;;;;;;11.47;10.27;;;21.40;99.90;;;;;;5033965;28;20220;-79
2023/06/20 05:51:15;;;;;;;11.97;10.83;;;21.50;99.90;;;;;;5016054;28;20647;-79
2023/06/20 05:53:41;;;;;;;10.93;9.93;;;21.50;99.90;;;;;;5033734;28;20291;-80
2023/06/20 05:56:13;;;;;;;11.40;10.40;;;21.40;99.90;;;;;;5033190;28;20663;-78
2023/06/20 05:58:41;;;;;;;10.97;9.97;;;21.50;99.90;;;;;;5033908;28;20172;-78
2023/06/20 06:01:07;;;;;;;11.73;10.27;;;21.70;99.90;;;;;;5015534;28;20637;-78
2023/06/20 06:03:33;;;;;;;11.00;10.00;;;21.80;99.90;;;;;;5034542;28;20263;-78
2023/06/20 06:06:00;;;;;;;11.57;10.47;;;21.90;99.90;;;;;;5018443;28;20184;-76
2023/06/20 06:08:28;;;;;;;11.43;10.33;;;21.90;99.90;;;;;;5036731;28;20192;-77
2023/06/20 06:10:53;;;;;;;11.73;10.70;;;22.10;99.90;;;;;;5034850;28;20181;-77
2023/06/20 06:13:19;;;;;;;11.17;10.10;;;22.20;99.90;;;;;;5035411;28;20270;-77
2023/06/20 06:15:45;;;;;;;12.83;10.60;;;22.30;99.90;;;;;;5017202;28;20272;-78
2023/06/20 06:18:11;;;;;;;11.63;10.43;;;22.20;99.90;;;;;;5034810;28;20215;-76
2023/06/20 06:20:37;;;;;;;10.70;9.80;;;22.20;99.90;;;;;;5052145;28;20176;-77
2023/06/20 06:23:02;;;;;;;11.97;10.87;;;22.30;99.90;;;;;;5042331;28;20184;-78
2023/06/20 06:25:28;;;;;;;11.60;10.47;;;22.40;99.90;;;;;;5034676;28;20619;-75
2023/06/20 06:27:54;;;;;;;12.20;10.83;;;22.30;99.90;;;;;;5033138;28;20173;-76
2023/06/20 06:30:20;;;;;;;11.30;10.20;;;22.20;99.90;;;;;;5035169;28;20176;-78
2023/06/20 06:32:49;;;;;;;13.67;10.30;;;22.30;99.90;;;;;;5034423;28;20619;-77
2023/06/20 06:35:17;;;;;;;11.03;9.93;;;22.40;99.90;;;;;;5034144;28;20218;-76
2023/06/20 06:37:44;;;;;;;11.73;10.53;;;22.50;99.90;;;;;;5016745;28;20227;-76
2023/06/20 06:40:11;;;;;;;12.00;10.77;;;22.60;99.90;;;;;;5033727;28;20168;-78
2023/06/20 06:42:37;;;;;;;10.47;9.53;;;22.80;99.90;;;;;;5048835;28;20173;-76
2023/06/20 06:45:04;;;;;;;10.80;9.80;;;22.90;99.90;;;;;;5036051;28;20218;-77
2023/06/20 06:47:30;;;;;;;10.55;9.55;;;23.10;99.90;;;;;;5034165;28;20279;-77
2023/06/20 06:49:55;;;;;;;10.18;9.27;;;23.40;99.90;;;;;;5033847;28;20176;-79
2023/06/20 06:52:22;;;;;;;10.68;9.57;;;23.60;99.90;;;;;;5037414;28;20186;-76
2023/06/20 06:54:47;;;;;;;10.73;9.27;;;23.70;99.90;;;;;;5049985;28;20224;-79
2023/06/20 06:57:13;;;;;;;10.23;9.40;;;23.90;99.90;;;;;;5038141;28;20225;-79
2023/06/20 06:59:39;;;;;;;9.95;9.05;;;24.00;99.90;;;;;;5034969;28;20176;-77
2023/06/20 07:02:05;;;;;;;10.27;9.38;;;24.10;99.90;;;;;;5020713;28;20200;-77
2023/06/20 07:04:32;;;;;;;9.75;8.95;;;24.20;99.90;;;;;;5034433;28;20191;-77
2023/06/20 07:06:58;;;;;;;10.30;9.15;;;24.20;99.90;;;;;;5015897;28;20172;-79
2023/06/20 07:09:24;;;;;;;9.75;8.75;;;24.10;99.90;;;;;;5033742;28;20168;-78
2023/06/20 07:11:49;;;;;;;9.93;8.93;;;24.00;99.90;;;;;;5033334;28;20180;-76
2023/06/20 07:14:15;;;;;;;10.20;8.82;;;24.00;99.90;;;;;;5031737;28;20212;-77
2023/06/20 07:16:41;;;;;;;9.45;7.80;;;24.20;99.90;;;;;;5033295;28;20191;-77
2023/06/20 07:19:07;;;;;;;8.85;8.05;;;24.30;99.90;;;;;;5032951;28;20181;-75
2023/06/20 07:21:32;;;;;;;10.02;8.10;;;24.50;99.90;;;;;;5032383;28;20195;-77
2023/06/20 07:23:58;;;;;;;9.38;8.43;;;24.80;99.90;;;;;;5032305;28;20169;-77
2023/06/20 07:26:24;;;;;;;9.18;8.38;;;24.80;99.90;;;;;;5033604;28;20165;-77
2023/06/20 07:28:50;;;;;;;8.75;7.90;;;24.90;99.90;;;;;;5035877;28;20183;-77
2023/06/20 07:31:20;;;;;;;9.07;8.27;;;24.90;99.90;;;;;;5038905;28;20184;-77
2023/06/20 07:33:46;;;;;;;8.50;7.80;;;24.90;99.90;;;;;;5037484;28;20556;-77
2023/06/20 07:36:13;;;;;;;8.52;7.70;;;25.10;99.90;;;;;;5037077;28;20184;-77
2023/06/20 07:38:39;;;;;;;8.65;7.85;;;25.30;99.90;;;;;;5036958;28;20183;-76
2023/06/20 07:41:05;;;;;;;8.30;7.60;;;25.40;99.90;;;;;;5037187;28;20560;-77
2023/06/20 07:43:31;;;;;;;7.88;7.18;;;25.50;99.90;;;;;;5034403;28;20168;-78
2023/06/20 07:45:57;;;;;;;11.30;8.20;;;25.50;99.50;;;;;;5035129;28;20168;-78
2023/06/20 07:48:29;;;;;;;8.68;7.88;;;25.60;99.70;;;;;;5039780;28;20172;-77
2023/06/20 07:50:56;;;;;;;9.23;8.25;;;25.80;99.60;;;;;;5048509;28;20188;-78
2023/06/20 07:53:22;;;;;;;8.82;8.13;;;25.90;99.90;;;;;;5042872;28;20233;-77
2023/06/20 07:55:49;;;;;;;9.13;8.32;;;25.90;99.80;;;;;;5020170;28;20710;-77
2023/06/20 07:58:15;;;;;;;11.65;10.65;;;26.00;99.70;;;;;;5036800;28;20181;-78
2023/06/20 08:00:41;;;;;;;8.77;8.07;;;25.90;99.70;;;;;;5036387;28;20169;-77
2023/06/20 08:03:07;;;;;;;10.25;8.50;;;26.00;99.70;;;;;;5037671;28;20172;-76
2023/06/20 08:05:33;;;;;;;10.23;9.27;;;26.20;99.90;;;;;;5036049;28;20442;-78
2023/06/20 08:07:59;;;;;;;14.00;9.20;;;26.40;99.90;;;;;;5035896;28;20627;-77
2023/06/20 08:10:24;;;;;;;9.60;8.65;;;26.50;99.20;;;;;;5035942;28;20672;-77
2023/06/20 08:12:50;;;;;;;9.18;8.45;;;26.40;99.40;;;;;;5035550;28;20527;-77
2023/06/20 08:15:16;;;;;;;10.02;8.43;;;26.60;99.70;;;;;;5018331;28;20699;-78
2023/06/20 08:17:42;;;;;;;9.60;8.80;;;26.70;99.60;;;;;;5037049;28;20184;-78
2023/06/20 08:20:09;;;;;;;10.00;9.00;;;26.70;99.80;;;;;;5047666;28;20192;-77
2023/06/20 08:22:35;;;;;;;9.85;8.95;;;26.80;99.70;;;;;;5040119;28;20165;-76
2023/06/20 08:25:02;;;;;;;11.70;10.60;;;26.90;99.30;;;;;;5043477;28;20408;-77
2023/06/20 08:27:28;;;;;;;11.55;10.48;;;27.00;98.80;;;;;;5050928;28;20204;-76
2023/06/20 08:29:53;;;;;;;19.55;8.80;;;27.00;98.90;;;;;;5039197;28;20191;-77
2023/06/20 08:32:19;;;;;;;9.63;8.68;;;27.10;99.30;;;;;;5046254;28;20176;-80
2023/06/20 08:34:49;;;;;;;9.25;8.43;;;27.10;99.70;;;;;;5052024;28;20595;-77
2023/06/20 08:37:18;;;;;;;9.93;9.02;;;27.00;99.60;;;;;;5035231;28;20172;-77
2023/06/20 08:39:44;;;;;;;12.43;10.05;;;27.10;99.90;;;;;;5035328;28;20172;-77
2023/06/20 08:42:12;;;;;;;11.30;10.20;;;27.10;99.90;;;;;;5034067;28;20173;-77
2023/06/20 08:44:38;;;;;;;10.65;9.75;;;27.20;99.90;;;;;;5034675;28;20176;-76
2023/06/20 08:47:05;;;;;;;10.00;9.10;;;27.30;99.90;;;;;;5035224;28;20187;-78
2023/06/20 08:49:30;;;;;;;10.13;9.32;;;27.30;99.90;;;;;;5035638;28;20259;-78
2023/06/20 08:52:00;;;;;;;10.05;9.25;;;27.20;99.60;;;;;;5037309;28;20255;-76
2023/06/20 08:54:35;;;;;;;9.65;8.85;;;27.40;99.90;;;;;;5035649;28;20228;-77
2023/06/20 08:57:00;;;;;;;9.60;8.73;;;27.50;99.90;;;;;;5034648;28;20207;-77
2023/06/20 08:59:26;;;;;;;9.13;8.43;;;27.60;99.80;;;;;;5034585;28;20172;-77
2023/06/20 09:01:52;;;;;;;9.73;8.90;;;27.60;99.90;;;;;;5034780;28;20636;-77
2023/06/20 09:04:18;;;;;;;9.32;8.52;;;27.60;99.90;;;;;;5034330;28;20168;-77
2023/06/20 09:06:45;;;;;;;9.48;8.55;;;27.60;99.50;;;;;;5034229;28;20554;-77
2023/06/20 09:09:17;;;;;;;10.38;9.38;;;27.70;99.80;;;;;;5034484;28;20176;-77
2023/06/20 09:11:49;;;;;;;10.93;9.93;;;27.60;99.80;;;;;;5034328;28;20562;-77
2023/06/20 09:14:16;;;;;;;10.18;9.25;;;27.60;99.90;;;;;;5042726;28;20266;-77
2023/06/20 09:16:42;;;;;;;10.70;9.77;;;27.80;99.90;;;;;;5034443;28;20177;-77
2023/06/20 09:19:08;;;;;;;10.27;9.40;;;27.50;99.90;;;;;;5034631;28;20242;-76
2023/06/20 09:21:40;;;;;;;10.23;9.20;;;27.60;99.90;;;;;;5034042;28;20233;-77
2023/06/20 09:24:07;;;;;;;10.68;9.77;;;27.80;99.90;;;;;;5017913;28;20202;-78
2023/06/20 09:26:33;;;;;;;9.45;8.75;;;27.90;99.90;;;;;;5039880;28;20181;-77
2023/06/20 09:29:10;;;;;;;10.15;9.32;;;28.00;99.90;;;;;;5034312;28;20651;-77
2023/06/20 09:31:42;;;;;;;11.63;10.57;;;28.10;99.90;;;;;;5033994;28;20728;-77
2023/06/20 09:34:12;;;;;;;10.98;9.98;;;28.10;99.60;;;;;;5033815;28;20208;-78
2023/06/20 09:36:39;;;;;;;11.02;10.02;;;28.00;99.60;;;;;;5033335;28;20168;-78
2023/06/20 09:39:13;;;;;;;10.35;9.35;;;27.50;99.60;;;;;;5034286;28;20655;-76
2023/06/20 09:41:49;;;;;;;11.10;10.05;;;27.50;99.90;;;;;;5033879;28;20157;-76
2023/06/20 09:44:16;;;;;;;12.60;10.68;;;27.60;99.90;;;;;;5033637;28;20183;-77
2023/06/20 09:46:42;;;;;;;10.55;9.55;;;27.80;99.90;;;;;;5033785;28;20177;-78
2023/06/20 09:49:11;;;;;;;11.48;10.52;;;27.90;99.90;;;;;;5033784;28;20180;-77
2023/06/20 09:51:54;;;;;;;13.32;11.25;;;28.10;99.90;;;;;;5032800;28;20176;-78
2023/06/20 09:54:33;;;;;;;11.88;10.52;;;28.20;99.90;;;;;;5032980;28;20231;-78
2023/06/20 09:57:06;;;;;;;11.40;10.27;;;28.30;99.90;;;;;;5042370;28;20260;-78
2023/06/20 09:59:34;;;;;;;10.63;9.73;;;28.30;99.80;;;;;;5041017;28;20243;-76
2023/06/20 10:02:02;;;;;;;9.82;8.93;;;28.40;99.60;;;;;;5032784;28;20172;-79
2023/06/20 10:04:30;;;;;;;10.60;9.80;;;28.50;99.50;;;;;;5033183;28;20184;-76
2023/06/20 10:06:57;;;;;;;10.57;9.77;;;28.40;99.00;;;;;;5033947;28;20259;-79
2023/06/20 10:09:24;;;;;;;10.07;9.25;;;28.40;99.60;;;;;;5050102;28;20184;-78
2023/06/20 10:11:50;;;;;;;10.00;9.13;;;28.50;99.50;;;;;;5036575;28;20226;-77
2023/06/20 10:14:16;;;;;;;10.40;9.40;;;28.60;99.70;;;;;;5033436;28;20262;-77
2023/06/20 10:16:51;;;;;;;10.35;9.32;;;28.70;98.70;;;;;;5033512;28;20234;-77
2023/06/20 10:19:17;;;;;;;10.27;9.38;;;28.60;98.00;;;;;;5033204;28;20771;-77
2023/06/20 10:21:59;;;;;;;10.35;9.48;;;28.60;98.60;;;;;;5033921;28;20179;-77
2023/06/20 10:24:29;;;;;;;10.15;9.35;;;28.60;99.10;;;;;;5035483;28;20168;-77
2023/06/20 10:27:01;;;;;;;10.45;9.55;;;28.50;98.90;;;;;;5018336;28;20173;-76
2023/06/20 10:29:27;;;;;;;10.07;9.07;;;28.60;98.60;;;;;;5035776;28;20153;-78
2023/06/20 10:31:54;;;;;;;9.48;8.57;;;28.60;98.00;;;;;;5038424;28;20648;-78
2023/06/20 10:34:36;;;;;;;9.88;8.88;;;28.60;97.50;;;;;;5024729;28;20267;-79
2023/06/20 10:37:13;;;;;;;9.27;8.50;;;28.60;97.30;;;;;;5033923;28;20230;-78
2023/06/20 10:39:49;;;;;;;8.93;8.23;;;28.60;97.10;;;;;;5032909;28;20192;-78
2023/06/20 10:42:38;;;;;;;10.30;9.13;;;28.70;97.60;;;;;;5032593;28;20162;-78
2023/06/20 10:45:40;;;;;;;10.25;9.40;;;28.80;97.80;;;;;;5034735;28;20684;-78
2023/06/20 10:48:06;;;;;;;11.30;8.52;;;28.90;98.80;;;;;;4992237;28;20271;-78
2023/06/20 10:50:32;;;;;;;9.95;8.85;;;29.00;99.30;;;;;;4990924;28;20269;-79
2023/06/20 10:53:03;;;;;;;8.73;8.02;;;29.10;97.80;;;;;;4991365;28;20230;-78
2023/06/20 10:55:29;;;;;;;9.60;8.57;;;29.10;97.70;;;;;;4983102;28;20650;-79
2023/06/20 10:57:55;;;;;;;9.45;8.65;;;29.10;97.80;;;;;;5000352;28;20200;-76
2023/06/20 11:00:23;;;;;;;9.52;8.70;;;29.20;98.10;;;;;;4992798;28;20170;-79
2023/06/20 11:02:49;;;;;;;8.93;8.23;;;29.30;98.10;;;;;;4991272;28;20177;-79
2023/06/20 11:05:16;;;;;;;9.07;8.38;;;29.40;97.10;;;;;;4991340;28;20182;-79
2023/06/20 11:07:54;;;;;;;10.00;9.20;;;29.30;96.30;;;;;;4995298;28;20178;-78
2023/06/20 11:10:36;;;;;;;9.80;8.90;;;29.30;96.60;;;;;;4994663;28;20198;-80
2023/06/20 11:13:06;;;;;;;9.15;8.45;;;29.20;96.10;;;;;;4995132;28;20205;-80
2023/06/20 11:15:34;;;;;;;9.20;8.40;;;29.10;95.50;;;;;;4995484;28;20205;-76
2023/06/20 11:18:05;;;;;;;9.15;8.35;;;28.80;95.70;;;;;;4995690;28;20186;-78
2023/06/20 11:20:35;;;;;;;10.13;8.73;;;28.70;96.10;;;;;;4995511;28;20209;-77
2023/06/20 11:23:03;;;;;;;9.32;8.55;;;28.70;96.40;;;;;;5004980;28;20188;-79
2023/06/20 11:25:34;;;;;;;14.70;10.20;;;28.80;96.60;;;;;;5019328;28;20176;-78
2023/06/20 11:28:14;;;;;;;10.60;9.60;;;28.70;97.90;;;;;;5019492;28;20645;-77
2023/06/20 11:30:41;;;;;;;11.90;10.68;;;28.70;98.10;;;;;;5018011;28;20165;-78
2023/06/20 11:33:12;;;;;;;10.13;9.32;;;28.90;98.40;;;;;;5017945;28;20548;-77
2023/06/20 11:35:59;;;;;;;10.30;9.30;;;28.90;97.80;;;;;;5022238;28;20184;-77
2023/06/20 11:38:27;;;;;;;10.40;9.50;;;29.10;98.10;;;;;;5017882;28;20165;-78
2023/06/20 11:41:06;;;;;;;9.85;9.05;;;29.20;97.30;;;;;;5016517;28;20645;-79
2023/06/20 11:43:41;;;;;;;10.60;9.15;;;29.20;97.50;;;;;;5029150;28;20169;-77
2023/06/20 11:46:08;;;;;;;9.93;9.05;;;29.20;96.70;;;;;;5038745;28;20156;-77
2023/06/20 11:48:35;;;;;;;10.57;9.45;;;29.10;97.00;;;;;;5039682;28;20158;-76
2023/06/20 11:51:03;;;;;;;10.25;9.25;;;29.20;97.00;;;;;;5039152;28;20260;-76
2023/06/20 11:53:35;;;;;;;10.65;9.55;;;29.30;97.60;;;;;;5047700;28;20216;-76
2023/06/20 11:56:08;;;;;;;10.30;9.40;;;29.20;97.20;;;;;;5059649;28;20145;-77
2023/06/20 11:58:48;;;;;;;10.50;9.70;;;29.20;97.20;;;;;;5059362;28;20167;-77
2023/06/20 12:01:20;;;;;;;10.50;9.50;;;29.20;97.00;;;;;;5042746;28;20176;-76
2023/06/20 12:04:05;;;;;;;10.32;9.52;;;29.20;97.30;;;;;;5060019;28;20149;-78
2023/06/20 12:06:36;;;;;;;9.75;9.02;;;29.20;97.40;;;;;;5060359;28;20152;-79
2023/06/20 12:09:16;;;;;;;9.80;9.00;;;29.30;97.40;;;;;;5058700;28;20177;-76
2023/06/20 12:11:48;;;;;;;10.20;9.40;;;29.40;97.10;;;;;;5032449;28;20180;-76
2023/06/20 12:14:18;;;;;;;10.50;9.60;;;29.50;96.70;;;;;;5041113;28;20212;-76
2023/06/20 12:16:43;;;;;;;10.07;9.23;;;29.50;96.50;;;;;;5043112;28;20173;-76
2023/06/20 12:19:10;;;;;;;9.90;9.10;;;29.50;96.50;;;;;;5039662;28;20207;-77
2023/06/20 12:21:38;;;;;;;11.95;9.63;;;29.50;96.10;;;;;;5040620;28;20245;-78
2023/06/20 12:24:08;;;;;;;10.82;9.88;;;29.50;96.40;;;;;;5029970;28;20215;-76
2023/06/20 12:26:34;;;;;;;10.15;9.32;;;29.50;96.50;;;;;;5043549;28;20220;-78
2023/06/20 12:29:00;;;;;;;9.32;8.50;;;29.60;96.50;;;;;;5040234;28;20173;-78
2023/06/20 12:31:26;;;;;;;9.82;8.98;;;29.50;96.00;;;;;;5043268;28;20172;-77
2023/06/20 12:33:51;;;;;;;9.80;8.90;;;29.50;95.70;;;;;;5018981;28;20585;-78
2023/06/20 12:36:18;;;;;;;10.27;9.20;;;29.50;95.80;;;;;;5036355;28;20164;-79
2023/06/20 12:38:44;;;;;;;10.77;9.70;;;29.50;95.80;;;;;;5044464;28;20172;-77
2023/06/20 12:41:13;;;;;;;9.90;9.02;;;29.50;95.90;;;;;;5032255;28;20268;-77
2023/06/20 12:43:39;;;;;;;10.65;9.75;;;29.50;97.00;;;;;;5035779;28;20188;-79
2023/06/20 12:46:04;;;;;;;11.23;10.27;;;29.50;97.20;;;;;;5035034;28;20172;-77
2023/06/20 12:48:31;;;;;;;12.77;9.48;;;29.40;97.50;;;;;;5017133;28;20257;-76